Time;durP1;ratioP1;P1;durP2;ratioP2;P2;SDS_P1;SDS_P2;PMS_P1;PMS_P2;Temp;Humidity;BMP_temperature;BMP_pressure;BME280_temperature;BME280_humidity;BME280_pressure;Samples;Min_cycle;Max_cycle;Signal;HPM_P1;HPM_P2
2022/01/08 00:01:11;;;;;;;11.43;5.45;;;2.60;99.90;;;3.38;100.00;99880.38;5038362;28;20040;-80
2022/01/08 00:03:38;;;;;;;12.07;5.15;;;2.60;99.90;;;3.43;100.00;99877.47;5037277;28;20530;-78
2022/01/08 00:06:08;;;;;;;12.85;4.93;;;2.70;99.90;;;3.50;100.00;99875.00;5037643;28;20036;-77
2022/01/08 00:08:35;;;;;;;10.50;5.07;;;2.70;99.90;;;3.49;100.00;99885.25;5053902;28;20029;-79
2022/01/08 00:11:01;;;;;;;9.93;4.60;;;2.80;99.90;;;3.49;100.00;99874.19;5036284;28;20036;-79
2022/01/08 00:13:30;;;;;;;11.05;5.65;;;2.80;99.90;;;3.48;100.00;99880.03;5054022;28;20025;-78
2022/01/08 00:15:56;;;;;;;9.88;5.07;;;2.80;99.90;;;3.51;100.00;99879.38;5057110;28;20052;-80
2022/01/08 00:18:23;;;;;;;9.63;4.60;;;2.80;99.90;;;3.43;100.00;99878.28;5065110;28;20036;-81
2022/01/08 00:20:52;;;;;;;13.93;5.20;;;2.80;99.90;;;3.44;100.00;99879.06;5054644;28;20056;-79
2022/01/08 00:23:20;;;;;;;14.82;5.35;;;2.80;99.90;;;3.37;100.00;99885.09;5058585;28;20036;-80
2022/01/08 00:25:46;;;;;;;10.98;5.65;;;2.70;99.90;;;3.29;100.00;99874.91;5046351;28;20030;-80
2022/01/08 00:28:12;;;;;;;10.88;4.82;;;2.60;99.90;;;3.33;100.00;99884.16;5036311;28;20025;-81
2022/01/08 00:30:38;;;;;;;10.07;5.22;;;2.60;99.90;;;3.26;100.00;99883.00;5035387;28;20030;-80
2022/01/08 00:33:04;;;;;;;12.07;5.40;;;2.60;99.90;;;3.21;100.00;99880.44;5034640;28;20105;-81
2022/01/08 00:35:32;;;;;;;9.60;4.97;;;2.60;99.90;;;3.20;100.00;99882.38;5017459;28;20030;-79
2022/01/08 00:38:00;;;;;;;13.40;5.75;;;2.50;99.90;;;3.13;100.00;99882.06;5017747;28;20044;-80
2022/01/08 00:40:26;;;;;;;8.88;5.57;;;2.50;99.90;;;3.17;100.00;99885.81;5018652;28;20437;-79
2022/01/08 00:42:51;;;;;;;11.68;6.22;;;2.50;99.90;;;3.17;100.00;99889.38;5034861;28;20044;-81
2022/01/08 00:45:17;;;;;;;13.18;5.68;;;2.50;99.90;;;3.16;100.00;99887.75;5034431;28;20029;-80
2022/01/08 00:47:44;;;;;;;11.43;5.13;;;2.60;99.90;;;3.17;100.00;99883.03;5017114;28;20391;-80
2022/01/08 00:50:12;;;;;;;15.35;6.50;;;2.50;99.90;;;3.18;100.00;99890.16;5034371;28;20112;-81
2022/01/08 00:52:43;;;;;;;12.75;5.78;;;2.50;99.90;;;3.14;100.00;99891.97;5016816;28;20453;-79
2022/01/08 00:55:11;;;;;;;12.60;5.65;;;2.60;99.90;;;3.24;100.00;99897.16;5016383;28;20480;-80
2022/01/08 00:57:37;;;;;;;12.85;6.00;;;2.50;99.90;;;3.27;100.00;99892.94;5016438;28;20152;-81
2022/01/08 01:00:12;;;;;;;11.52;5.72;;;2.50;99.90;;;3.25;100.00;99889.66;5034563;28;20427;-80
2022/01/08 01:02:42;;;;;;;12.60;5.50;;;2.50;99.90;;;3.25;100.00;99897.94;5018449;28;20041;-81
2022/01/08 01:05:10;;;;;;;12.02;6.00;;;2.50;99.90;;;3.19;100.00;99891.78;5038208;28;20457;-81
2022/01/08 01:07:36;;;;;;;13.70;6.07;;;2.50;99.90;;;3.11;100.00;99898.16;5039071;28;20033;-78
2022/01/08 01:10:05;;;;;;;12.82;6.00;;;2.40;99.90;;;3.04;100.00;99889.56;5019968;28;20025;-80
2022/01/08 01:12:31;;;;;;;14.23;5.80;;;2.40;99.90;;;2.97;100.00;99884.53;5037967;28;20039;-79
2022/01/08 01:14:57;;;;;;;14.75;6.60;;;2.30;99.90;;;2.93;100.00;99886.31;5038073;28;20037;-78
2022/01/08 01:17:26;;;;;;;13.57;6.10;;;2.30;99.90;;;2.90;100.00;99886.97;5020626;28;20037;-78
2022/01/08 01:19:52;;;;;;;10.60;6.30;;;2.20;99.90;;;2.81;100.00;99891.69;5039396;28;20033;-80
2022/01/08 01:22:21;;;;;;;11.88;6.43;;;2.20;99.90;;;2.73;100.00;99892.47;5039921;28;20041;-79
2022/01/08 01:24:48;;;;;;;17.27;7.32;;;2.10;99.90;;;2.72;100.00;99885.34;5040707;28;20032;-79
2022/01/08 01:30:15;;;;;;;13.57;7.05;;;2.00;99.90;;;2.69;100.00;99882.44;5057677;28;20507;-80
2022/01/08 01:49:07;;;;;;;21.27;10.00;;;1.80;99.90;;;2.43;100.00;99894.25;5057420;28;20036;-79
2022/01/08 01:51:42;;;;;;;20.42;9.10;;;1.80;99.90;;;2.38;100.00;99902.66;5057134;28;20078;-79
2022/01/08 01:54:08;;;;;;;19.27;10.15;;;1.70;99.90;;;2.37;100.00;99894.75;5057619;28;20348;-79
2022/01/08 01:56:35;;;;;;;17.00;8.57;;;1.70;99.90;;;2.33;100.00;99888.25;5057285;28;20120;-79
2022/01/08 01:59:02;;;;;;;19.17;9.35;;;1.70;99.90;;;2.27;100.00;99898.59;5057702;28;20025;-81
2022/01/08 02:01:28;;;;;;;19.52;8.57;;;1.60;99.90;;;2.22;100.00;99908.94;5056924;28;20086;-79
2022/01/08 02:03:54;;;;;;;20.95;9.75;;;1.60;99.90;;;2.18;100.00;99908.00;5055633;28;20040;-79
2022/01/08 02:06:29;;;;;;;20.65;9.98;;;1.50;99.90;;;2.15;100.00;99912.19;5039304;28;20396;-79
2022/01/08 02:08:55;;;;;;;23.77;9.95;;;1.50;99.90;;;2.14;100.00;99910.56;5057156;28;20059;-80
2022/01/08 02:11:21;;;;;;;19.73;10.68;;;1.50;99.90;;;2.12;100.00;99910.06;5039689;28;20025;-79
2022/01/08 02:13:47;;;;;;;19.33;10.00;;;1.50;99.90;;;2.15;100.00;99916.91;5056424;28;20112;-79
2022/01/08 02:16:17;;;;;;;15.52;9.10;;;1.50;99.90;;;2.12;100.00;99905.38;5057563;28;20039;-81
2022/01/08 02:18:47;;;;;;;23.13;10.45;;;1.50;99.90;;;2.09;100.00;99910.69;5039299;28;20060;-79
2022/01/08 02:21:15;;;;;;;19.15;10.30;;;1.40;99.90;;;2.06;100.00;99912.16;5059493;28;20043;-79
2022/01/08 02:23:42;;;;;;;20.35;11.52;;;1.40;99.90;;;2.09;100.00;99913.44;5062690;28;20033;-80
2022/01/08 02:26:11;;;;;;;17.58;10.68;;;1.40;99.90;;;2.06;100.00;99905.84;5048563;28;20034;-80
2022/01/08 02:28:40;;;;;;;25.15;11.38;;;1.40;99.90;;;2.05;100.00;99909.75;5020892;28;20041;-79
2022/01/08 02:31:19;;;;;;;27.17;12.27;;;1.40;99.90;;;2.08;100.00;99906.34;5036084;28;20029;-78
2022/01/08 02:33:45;;;;;;;23.98;11.18;;;1.40;99.90;;;2.08;100.00;99907.16;5018680;28;20091;-81
2022/01/08 02:36:15;;;;;;;23.98;12.15;;;1.40;99.90;;;2.13;100.00;99911.69;5036208;28;20555;-79
2022/01/08 02:38:44;;;;;;;24.35;12.27;;;1.40;99.90;;;2.14;100.00;99916.06;5036594;28;20033;-80
2022/01/08 02:41:11;;;;;;;25.17;12.77;;;1.50;99.90;;;2.16;100.00;99904.72;5018580;28;20029;-80
2022/01/08 02:43:43;;;;;;;21.52;12.32;;;1.50;99.90;;;2.14;100.00;99907.81;5036919;28;20044;-80
2022/01/08 02:46:12;;;;;;;24.15;13.77;;;1.50;99.90;;;2.13;100.00;99895.16;5035983;28;20037;-78
2022/01/08 02:48:39;;;;;;;22.15;12.48;;;1.50;99.90;;;2.07;100.00;99894.50;5017694;28;20025;-80
2022/01/08 02:51:04;;;;;;;23.33;12.68;;;1.50;99.90;;;2.09;100.00;99889.47;5051116;23;20116;-85
2022/01/08 02:53:30;;;;;;;26.25;12.27;;;1.40;99.90;;;2.04;100.00;99889.63;5033467;28;20029;-83
2022/01/08 02:55:56;;;;;;;25.70;12.30;;;1.40;99.90;;;2.04;100.00;99886.06;5034715;28;20032;-80
2022/01/08 02:58:26;;;;;;;24.50;13.00;;;1.40;99.90;;;1.95;100.00;99888.00;5016422;28;20022;-83
2022/01/08 03:00:52;;;;;;;27.90;15.18;;;1.30;99.90;;;1.92;100.00;99883.94;5048613;28;20021;-84
2022/01/08 03:03:22;;;;;;;29.52;13.13;;;1.30;99.90;;;1.93;100.00;99881.97;5053836;28;20575;-84
2022/01/08 03:05:48;;;;;;;28.65;14.80;;;1.30;99.90;;;1.93;100.00;99891.06;5035699;28;20032;-83
2022/01/08 03:08:14;;;;;;;29.63;14.98;;;1.30;99.90;;;1.93;100.00;99884.72;5054570;28;20100;-83
2022/01/08 03:10:39;;;;;;;29.15;13.98;;;1.30;99.90;;;1.90;100.00;99880.69;5052108;28;20436;-82
2022/01/08 03:13:06;;;;;;;29.30;15.23;;;1.30;99.90;;;1.90;100.00;99882.63;5051604;28;20029;-82
2022/01/08 03:15:39;;;;;;;26.77;15.68;;;1.30;99.90;;;1.88;100.00;99882.13;5051809;28;20025;-82
2022/01/08 03:18:07;;;;;;;24.98;13.80;;;1.30;99.90;;;1.89;100.00;99889.28;5053090;28;20034;-80
2022/01/08 03:20:46;;;;;;;26.38;14.90;;;1.20;99.90;;;1.84;100.00;99894.91;5051430;28;20085;-82
2022/01/08 03:23:15;;;;;;;28.83;16.40;;;1.20;99.90;;;1.77;100.00;99884.34;5034607;28;20140;-84
2022/01/08 03:25:48;;;;;;;32.78;15.43;;;1.10;99.90;;;1.78;100.00;99886.00;5062502;28;20392;-82
2022/01/08 03:28:14;;;;;;;28.70;15.45;;;1.10;99.90;;;1.74;100.00;99884.19;5055080;28;20056;-82
2022/01/08 03:30:40;;;;;;;38.13;16.15;;;1.10;99.90;;;1.76;100.00;99887.44;5054752;28;20052;-80
2022/01/08 03:33:12;;;;;;;30.00;15.80;;;1.10;99.90;;;1.72;100.00;99884.50;5072753;28;20036;-83
2022/01/08 03:35:38;;;;;;;29.83;16.17;;;1.10;99.90;;;1.76;100.00;99890.19;5073046;28;20088;-79
2022/01/08 03:38:03;;;;;;;32.60;16.67;;;1.10;99.90;;;1.75;100.00;99894.88;5054575;28;20124;-80
2022/01/08 03:40:29;;;;;;;31.88;15.48;;;1.10;99.90;;;1.79;100.00;99893.13;5072978;28;20069;-81
2022/01/08 03:42:55;;;;;;;31.02;16.73;;;1.20;99.90;;;1.78;100.00;99896.19;5073228;28;20020;-82
2022/01/08 03:45:24;;;;;;;35.17;17.58;;;1.20;99.90;;;1.80;100.00;99885.69;5054599;28;20024;-83
2022/01/08 03:48:45;;;;;;;32.28;16.83;;;1.20;99.90;;;1.78;100.00;99882.41;5054636;28;20090;-81
2022/01/08 03:50:42;;;;;;;37.28;17.25;;;1.20;99.90;;;1.84;100.00;99881.13;5071635;28;20068;-81
2022/01/08 03:53:08;;;;;;;40.03;17.73;;;1.20;99.90;;;1.85;100.00;99899.28;5054391;28;20479;-82
2022/01/08 03:55:34;;;;;;;33.05;17.00;;;1.20;99.90;;;1.89;100.00;99903.84;5054711;28;20070;-84
2022/01/08 03:58:00;;;;;;;33.08;16.73;;;1.30;99.90;;;1.86;100.00;99912.72;5072678;28;20024;-80
2022/01/08 04:00:27;;;;;;;30.55;17.08;;;1.30;99.90;;;1.87;100.00;99913.53;5055174;28;20415;-81
2022/01/08 04:02:53;;;;;;;34.95;17.38;;;1.20;99.90;;;1.86;100.00;99909.97;5072812;28;20052;-83
2022/01/08 04:05:20;;;;;;;34.00;18.65;;;1.30;99.90;;;1.90;100.00;99913.72;5054950;28;20035;-83
2022/01/08 04:07:46;;;;;;;33.88;17.88;;;1.30;99.90;;;1.89;100.00;99914.88;5071265;28;20043;-82
2022/01/08 04:10:12;;;;;;;31.67;17.70;;;1.30;99.90;;;1.83;100.00;99924.38;5054571;28;20027;-81
2022/01/08 04:12:46;;;;;;;36.95;18.70;;;1.20;99.90;;;1.83;100.00;99929.88;5054456;28;20541;-81
2022/01/08 04:17:54;;;;;;;32.63;17.25;;;1.20;99.90;;;1.87;100.00;99930.88;5072598;28;20035;-82
2022/01/08 04:20:22;;;;;;;36.38;18.15;;;1.30;99.90;;;1.82;100.00;99947.56;5072138;28;20111;-83
2022/01/08 04:22:50;;;;;;;37.38;18.55;;;1.20;99.90;;;1.85;100.00;99957.13;5054192;28;20060;-81
2022/01/08 04:25:23;;;;;;;36.25;18.20;;;1.20;99.90;;;1.91;100.00;99961.34;5050641;28;20029;-81
2022/01/08 04:27:50;;;;;;;33.00;17.60;;;1.30;99.90;;;1.89;100.00;99955.38;5050709;28;20052;-81
2022/01/08 04:30:16;;;;;;;34.65;17.48;;;1.20;99.90;;;1.81;100.00;99954.19;5050950;28;20029;-81
2022/01/08 04:32:43;;;;;;;33.97;17.55;;;1.20;99.90;;;1.74;100.00;99959.31;5050718;28;20020;-82
2022/01/08 04:35:12;;;;;;;35.05;17.25;;;1.10;99.90;;;1.85;100.00;99962.63;5051083;28;20097;-82
2022/01/08 04:37:38;;;;;;;36.33;17.88;;;1.10;99.90;;;1.63;100.00;99963.50;5055238;28;20108;-83
2022/01/08 04:40:05;;;;;;;38.35;18.15;;;1.10;99.90;;;1.64;100.00;99970.59;5056344;28;20067;-82
2022/01/08 04:42:31;;;;;;;36.55;18.30;;;1.00;99.90;;;1.61;100.00;99973.19;5056266;28;20040;-80
2022/01/08 04:44:57;;;;;;;32.85;17.25;;;1.00;99.90;;;1.58;100.00;99967.19;5056229;28;20115;-83
2022/01/08 04:47:23;;;;;;;37.08;18.30;;;1.00;99.90;;;1.61;100.00;99978.69;5056133;28;20044;-83
2022/01/08 04:49:48;;;;;;;31.55;17.85;;;1.00;99.90;;;1.81;100.00;99973.44;5054279;28;20053;-82
2022/01/08 04:52:17;;;;;;;35.08;17.63;;;0.90;99.90;;;1.80;100.00;99976.53;5054463;28;20025;-81
2022/01/08 04:54:43;;;;;;;34.28;18.00;;;0.90;99.90;;;1.87;100.00;99980.44;5055175;28;20336;-81
2022/01/08 04:57:09;;;;;;;31.20;16.50;;;0.90;99.90;;;1.84;100.00;99983.84;5055107;28;20033;-82
2022/01/08 04:59:35;;;;;;;34.42;18.08;;;0.90;99.90;;;1.59;100.00;99981.75;5055050;28;20029;-81
2022/01/08 05:02:07;;;;;;;38.40;18.23;;;0.90;99.90;;;1.52;100.00;99984.13;5056553;28;20064;-81
2022/01/08 05:04:33;;;;;;;38.72;18.65;;;0.90;99.90;;;1.48;100.00;99985.88;5077426;28;20492;-80
2022/01/08 05:06:59;;;;;;;34.95;18.80;;;0.90;99.90;;;1.44;100.00;99990.41;5055053;28;20027;-81
2022/01/08 05:09:28;;;;;;;37.40;18.60;;;0.80;99.90;;;1.39;100.00;99987.78;5053722;28;20469;-81
2022/01/08 05:11:53;;;;;;;35.38;19.50;;;0.80;99.90;;;1.31;100.00;99988.53;5055358;28;20446;-81
2022/01/08 05:14:23;;;;;;;40.50;19.77;;;0.70;99.90;;;1.35;100.00;99984.81;5053965;28;20112;-82
2022/01/08 05:16:57;;;;;;;41.83;20.50;;;0.70;99.90;;;1.42;100.00;99990.72;5053890;28;20028;-83
2022/01/08 05:19:35;;;;;;;38.92;20.77;;;0.80;99.90;;;1.35;100.00;99984.81;5063696;28;20116;-81
2022/01/08 05:22:09;;;;;;;41.58;22.17;;;0.80;99.90;;;1.30;100.00;99982.22;5055818;28;20040;-83
2022/01/08 05:24:35;;;;;;;40.28;21.73;;;0.70;99.90;;;1.33;100.00;99992.59;5057161;28;20116;-83
2022/01/08 05:27:05;;;;;;;39.88;21.15;;;0.70;99.90;;;1.32;100.00;99990.97;5058478;28;20025;-83
2022/01/08 05:29:35;;;;;;;44.90;21.45;;;0.70;99.90;;;1.31;100.00;99989.34;5057876;28;20475;-81
2022/01/08 05:32:01;;;;;;;39.45;21.17;;;0.70;99.90;;;1.35;100.00;99992.28;5057540;28;20039;-80
2022/01/08 05:34:27;;;;;;;50.35;22.13;;;0.70;99.90;;;1.30;100.00;99995.16;5057155;28;20033;-79
2022/01/08 05:36:52;;;;;;;44.20;23.60;;;0.70;99.90;;;1.33;100.00;99991.78;5056833;28;20039;-81
2022/01/08 05:39:18;;;;;;;48.72;23.25;;;0.70;99.90;;;1.28;100.00;99998.22;5074436;28;20059;-82
2022/01/08 05:41:48;;;;;;;50.75;22.83;;;0.70;99.90;;;1.26;100.00;99997.72;5074714;28;20104;-83
2022/01/08 05:44:14;;;;;;;42.55;21.73;;;0.70;99.90;;;1.26;100.00;100002.41;5056890;28;20124;-83
2022/01/08 05:46:44;;;;;;;48.80;22.67;;;0.70;99.90;;;1.23;100.00;100005.78;5056751;28;20131;-81
2022/01/08 05:49:12;;;;;;;48.97;23.77;;;0.60;99.90;;;1.23;100.00;100001.09;5075138;28;20118;-83
2022/01/08 05:51:38;;;;;;;51.00;24.85;;;0.60;99.90;;;1.21;100.00;100000.59;5073350;28;20124;-81
2022/01/08 05:54:04;;;;;;;47.53;24.45;;;0.60;99.90;;;1.24;100.00;100008.22;5086743;28;20059;-84
2022/01/08 05:56:30;;;;;;;48.25;23.30;;;0.60;99.90;;;1.29;100.00;100001.78;5061587;28;20501;-84
2022/01/08 05:58:56;;;;;;;47.08;23.88;;;0.60;99.90;;;1.33;100.00;100002.78;5058400;28;20101;-82
2022/01/08 06:01:25;;;;;;;52.92;25.38;;;0.70;99.90;;;1.41;100.00;100013.84;5057874;28;20056;-82
2022/01/08 06:03:57;;;;;;;48.00;24.67;;;0.70;99.90;;;1.39;100.00;100002.34;5057875;28;20036;-84
2022/01/08 06:06:22;;;;;;;49.53;24.45;;;0.80;99.90;;;1.42;100.00;100006.41;5058383;28;20119;-83
2022/01/08 06:08:48;;;;;;;55.35;26.65;;;0.80;99.90;;;1.41;100.00;100010.31;5073708;28;20070;-82
2022/01/08 06:11:17;;;;;;;50.35;24.77;;;0.80;99.90;;;1.39;100.00;100007.84;5074700;28;20060;-82
2022/01/08 06:13:45;;;;;;;55.13;27.17;;;0.80;99.90;;;1.36;100.00;100013.97;5081255;28;20016;-83
2022/01/08 06:16:11;;;;;;;54.55;26.10;;;0.80;99.90;;;1.43;100.00;100016.28;5097752;28;20075;-79
2022/01/08 06:18:40;;;;;;;61.45;29.20;;;0.80;99.90;;;1.45;100.00;100020.34;5097766;28;20020;-80
2022/01/08 06:21:06;;;;;;;58.47;28.55;;;0.80;99.90;;;1.43;100.00;100024.53;5077930;28;20102;-81
2022/01/08 06:23:32;;;;;;;54.63;28.30;;;0.90;99.90;;;1.47;100.00;100028.31;5074632;28;20044;-81
2022/01/08 06:26:02;;;;;;;58.72;28.35;;;0.90;99.90;;;1.40;100.00;100028.75;5052870;28;20040;-81
2022/01/08 06:28:28;;;;;;;63.60;30.90;;;0.80;99.90;;;1.38;100.00;100028.22;5053155;28;20484;-81
2022/01/08 06:30:54;;;;;;;62.05;30.23;;;0.90;99.90;;;1.45;100.00;100031.34;5053121;28;20025;-82
2022/01/08 06:33:20;;;;;;;60.30;30.35;;;0.80;99.90;;;1.47;100.00;100028.31;5053205;28;20043;-81
2022/01/08 06:35:51;;;;;;;60.72;30.30;;;0.90;99.90;;;1.47;100.00;100020.06;5054262;28;20033;-81
2022/01/08 06:38:19;;;;;;;61.58;29.70;;;0.90;99.90;;;1.45;100.00;100028.59;5052577;28;20044;-80
2022/01/08 06:40:46;;;;;;;58.28;29.33;;;0.90;99.90;;;1.46;100.00;100029.41;5053987;28;20025;-81
2022/01/08 06:43:13;;;;;;;58.63;30.20;;;0.90;99.90;;;1.41;100.00;100038.59;5052964;28;20032;-81
2022/01/08 06:45:44;;;;;;;62.78;27.77;;;0.80;99.90;;;1.44;100.00;100031.69;5054137;28;20037;-83
2022/01/08 06:48:10;;;;;;;63.85;28.73;;;0.80;99.90;;;1.42;100.00;100036.66;5052737;28;20641;-81
2022/01/08 06:50:36;;;;;;;59.03;28.75;;;0.80;99.90;;;1.41;100.00;100038.59;5052583;28;20127;-82
2022/01/08 06:53:02;;;;;;;57.50;28.27;;;0.80;99.90;;;1.34;100.00;100048.44;5052428;28;20079;-82
2022/01/08 06:55:28;;;;;;;62.13;27.52;;;0.80;99.90;;;1.26;100.00;100055.47;5052466;28;20029;-80
2022/01/08 06:57:59;;;;;;;56.28;29.40;;;0.70;99.90;;;1.30;100.00;100058.44;5052450;28;20029;-83
2022/01/08 07:00:25;;;;;;;62.05;30.10;;;0.70;99.90;;;1.23;100.00;100058.03;5051481;28;20028;-81
2022/01/08 07:02:51;;;;;;;53.95;28.38;;;0.70;99.90;;;1.23;100.00;100058.03;5053500;28;20461;-81
2022/01/08 07:05:17;;;;;;;56.50;28.50;;;0.60;99.90;;;1.22;100.00;100073.72;5052361;28;20037;-81
2022/01/08 07:07:42;;;;;;;61.03;29.42;;;0.60;99.90;;;1.22;100.00;100070.97;5053694;28;20047;-81
2022/01/08 07:10:09;;;;;;;59.65;28.75;;;0.60;99.90;;;1.25;100.00;100078.63;5053291;28;20036;-81
2022/01/08 07:12:35;;;;;;;60.63;29.50;;;0.70;99.90;;;1.24;100.00;100077.00;5052144;28;20043;-81
2022/01/08 07:15:01;;;;;;;48.22;26.75;;;0.60;99.90;;;1.30;100.00;100078.50;5053627;28;20039;-82
2022/01/08 07:17:27;;;;;;;56.60;27.30;;;0.70;99.90;;;1.32;100.00;100080.94;5052975;28;20072;-82
2022/01/08 07:19:53;;;;;;;56.80;28.33;;;0.70;99.90;;;1.43;100.00;100083.16;5052211;28;20126;-83
2022/01/08 07:22:19;;;;;;;52.08;25.33;;;0.80;99.90;;;1.49;100.00;100092.09;5052312;28;20033;-82
2022/01/08 07:24:48;;;;;;;51.88;26.50;;;0.80;99.90;;;1.40;100.00;100085.72;5054314;28;20044;-81
2022/01/08 07:27:13;;;;;;;54.10;26.63;;;0.80;99.90;;;1.42;100.00;100089.78;5055673;28;20052;-81
2022/01/08 07:29:42;;;;;;;51.22;26.75;;;0.80;99.90;;;1.44;100.00;100087.53;5055335;28;20284;-82
2022/01/08 07:32:11;;;;;;;50.55;28.20;;;0.80;99.90;;;1.46;100.00;100096.28;5073403;28;20360;-81
2022/01/08 07:34:43;;;;;;;51.30;25.85;;;0.90;99.90;;;1.47;100.00;100094.34;5055744;28;20391;-80
2022/01/08 07:37:12;;;;;;;54.25;26.70;;;0.90;99.90;;;1.52;100.00;100086.78;5055136;28;20507;-82
2022/01/08 07:39:37;;;;;;;51.88;26.13;;;0.90;99.90;;;1.53;100.00;100093.09;5055207;28;20039;-83
2022/01/08 07:42:04;;;;;;;61.30;26.95;;;0.90;99.90;;;1.52;100.00;100092.28;5054978;28;20028;-83
2022/01/08 07:44:30;;;;;;;55.50;26.80;;;0.90;99.90;;;1.52;100.00;100088.72;5055033;28;20514;-82
2022/01/08 07:46:57;;;;;;;56.45;29.13;;;0.90;99.90;;;1.47;100.00;100094.34;5072973;28;20032;-81
2022/01/08 07:49:23;;;;;;;54.20;27.98;;;0.90;99.90;;;1.51;100.00;100095.34;5055347;28;20031;-80
2022/01/08 07:51:49;;;;;;;48.38;26.13;;;0.90;99.90;;;1.45;100.00;100094.66;5055105;28;20028;-81
2022/01/08 07:54:15;;;;;;;54.40;28.13;;;0.90;99.90;;;1.54;100.00;100098.28;5073902;28;20028;-82
2022/01/08 07:56:41;;;;;;;51.30;27.58;;;0.90;99.90;;;1.58;100.00;100090.22;5073339;28;20038;-81
2022/01/08 07:59:06;;;;;;;60.22;27.33;;;1.00;99.90;;;1.60;100.00;100099.00;5073143;28;20107;-82
2022/01/08 08:01:32;;;;;;;53.30;26.02;;;1.00;99.90;;;1.61;100.00;100097.84;5073062;28;20498;-84
2022/01/08 08:03:58;;;;;;;55.10;26.80;;;1.00;99.90;;;1.64;100.00;100101.94;5055058;28;20056;-81
2022/01/08 08:06:27;;;;;;;52.22;25.90;;;1.10;99.90;;;1.67;100.00;100099.34;5054429;28;20082;-82
2022/01/08 08:08:53;;;;;;;56.00;26.00;;;1.10;99.90;;;1.70;100.00;100103.44;5054840;28;20039;-81
2022/01/08 08:11:18;;;;;;;54.85;26.10;;;1.20;99.90;;;1.79;100.00;100096.88;5055003;28;20407;-83
2022/01/08 08:13:44;;;;;;;57.40;27.55;;;1.20;99.90;;;1.92;100.00;100089.66;5073053;28;20032;-83
2022/01/08 08:16:10;;;;;;;48.00;23.65;;;1.30;99.90;;;2.07;100.00;100092.84;5054857;28;20037;-79
2022/01/08 08:18:36;;;;;;;54.58;26.13;;;1.40;99.90;;;2.15;100.00;100093.19;5055269;28;20041;-80
2022/01/08 08:21:02;;;;;;;51.50;24.40;;;1.50;99.90;;;2.21;100.00;100097.44;5054668;28;20033;-82
2022/01/08 08:23:29;;;;;;;50.88;24.27;;;1.60;99.90;;;2.25;100.00;100101.22;5072132;28;20041;-79
2022/01/08 08:25:57;;;;;;;49.25;24.38;;;1.60;99.90;;;2.33;100.00;100101.25;5061189;28;20037;-82
2022/01/08 08:28:23;;;;;;;47.10;23.90;;;1.70;99.90;;;2.33;100.00;100095.72;5053255;28;20033;-81
2022/01/08 08:30:49;;;;;;;42.53;22.98;;;1.70;99.90;;;2.32;100.00;100093.28;5052271;28;20109;-81
2022/01/08 08:33:15;;;;;;;54.58;22.92;;;1.70;99.90;;;2.31;100.00;100100.72;5051857;28;20033;-82
2022/01/08 08:35:41;;;;;;;44.80;22.63;;;1.70;99.90;;;2.30;100.00;100087.28;5051409;28;20041;-82
2022/01/08 08:38:07;;;;;;;49.05;22.40;;;1.70;99.90;;;2.33;100.00;100087.47;5051766;28;20037;-83
2022/01/08 08:40:33;;;;;;;43.72;23.15;;;1.70;99.90;;;2.39;100.00;100077.09;5051330;28;20033;-81
2022/01/08 08:43:05;;;;;;;51.17;24.10;;;1.70;99.90;;;2.47;100.00;100076.34;5051618;28;20037;-82
2022/01/08 08:45:32;;;;;;;41.80;22.70;;;1.80;99.90;;;2.53;100.00;100075.88;5052695;28;20048;-82
2022/01/08 08:47:58;;;;;;;45.47;21.42;;;1.90;99.90;;;2.73;100.00;100074.47;5051731;28;20053;-81
2022/01/08 08:50:25;;;;;;;48.95;22.48;;;2.00;99.90;;;2.73;100.00;100076.44;5052841;28;20167;-81
2022/01/08 08:52:54;;;;;;;39.47;21.42;;;2.10;99.90;;;2.72;100.00;100064.59;5052775;28;20048;-80
2022/01/08 08:55:26;;;;;;;46.53;21.23;;;2.10;99.90;;;2.59;100.00;100071.84;5051026;28;20044;-81
2022/01/08 08:57:52;;;;;;;46.97;21.60;;;2.00;99.90;;;2.53;100.00;100067.63;5051671;28;20492;-82
2022/01/08 09:00:19;;;;;;;41.70;21.77;;;2.00;99.90;;;2.46;100.00;100071.94;5052016;28;20093;-81
2022/01/08 09:02:45;;;;;;;45.83;22.30;;;1.90;99.90;;;2.50;100.00;100079.28;5050978;28;20414;-81
2022/01/08 09:05:11;;;;;;;40.92;20.73;;;1.90;99.90;;;2.43;100.00;100078.91;5052379;28;20033;-81
2022/01/08 09:07:39;;;;;;;40.92;21.63;;;1.90;99.90;;;2.45;100.00;100068.38;5051867;28;20036;-83
2022/01/08 09:10:09;;;;;;;38.83;20.83;;;1.90;99.90;;;2.47;100.00;100076.34;5053376;28;20029;-80
2022/01/08 09:12:41;;;;;;;42.72;19.67;;;1.90;99.90;;;2.44;100.00;100071.47;5053051;28;20033;-81
2022/01/08 09:15:09;;;;;;;41.17;21.50;;;2.00;99.90;;;2.53;100.00;100078.63;5051899;28;20039;-82
2022/01/08 09:17:39;;;;;;;39.10;19.98;;;2.00;99.90;;;2.54;100.00;100079.44;5052641;28;20055;-81
2022/01/08 09:20:10;;;;;;;34.08;18.85;;;2.00;99.90;;;2.60;100.00;100086.44;5051894;28;20329;-80
2022/01/08 09:22:36;;;;;;;38.00;20.17;;;2.10;99.90;;;2.60;100.00;100076.22;5053273;28;20140;-80
2022/01/08 09:25:03;;;;;;;39.88;19.13;;;2.10;99.90;;;2.69;100.00;100072.69;5059858;28;20033;-83
2022/01/08 09:27:29;;;;;;;37.25;19.33;;;2.10;99.90;;;2.74;100.00;100067.81;5060168;28;20028;-83
2022/01/08 09:29:55;;;;;;;39.83;18.50;;;2.20;99.90;;;2.83;100.00;100067.84;5059326;28;20051;-82
2022/01/08 09:32:23;;;;;;;47.38;17.77;;;2.30;99.90;;;2.99;100.00;100066.25;5077852;28;20028;-81
2022/01/08 09:34:50;;;;;;;32.25;16.73;;;2.30;99.90;;;3.11;100.00;100067.25;5060654;28;20035;-84
2022/01/08 09:37:17;;;;;;;32.78;17.15;;;2.40;99.90;;;3.00;100.00;100065.94;5078030;28;20032;-83
2022/01/08 09:39:43;;;;;;;36.88;17.20;;;2.40;99.90;;;3.02;100.00;100065.59;5060079;28;20036;-82
2022/01/08 09:42:10;;;;;;;34.40;16.10;;;2.50;99.90;;;3.04;100.00;100068.88;5077474;28;20033;-79
2022/01/08 09:44:39;;;;;;;36.45;16.08;;;2.50;99.90;;;3.03;100.00;100073.56;5077600;28;20036;-81
2022/01/08 09:47:06;;;;;;;40.28;17.35;;;2.50;99.90;;;3.18;100.00;100064.00;5059310;28;20114;-82
2022/01/08 09:49:33;;;;;;;32.78;16.45;;;2.60;99.90;;;3.28;100.00;100058.16;5059203;28;20115;-81
2022/01/08 09:52:03;;;;;;;36.72;17.98;;;2.70;99.90;;;3.37;100.00;100060.97;5058679;28;20399;-82
2022/01/08 09:54:34;;;;;;;35.28;18.35;;;2.70;99.90;;;3.50;100.00;100052.50;5058795;28;20029;-81
2022/01/08 09:57:00;;;;;;;30.38;16.90;;;2.80;99.90;;;3.59;100.00;100053.31;5059225;28;20036;-82
2022/01/08 09:59:28;;;;;;;32.10;16.33;;;2.90;99.90;;;3.45;100.00;100055.44;5059192;28;20036;-81
2022/01/08 10:02:02;;;;;;;36.30;17.30;;;2.90;99.90;;;3.59;100.00;100047.78;5059278;28;20029;-80
2022/01/08 10:04:35;;;;;;;38.55;17.67;;;2.90;99.90;;;3.47;100.00;100044.03;5076101;28;20035;-81
2022/01/08 10:07:24;;;;;;;39.85;17.33;;;2.90;99.90;;;3.52;100.00;100050.22;5059455;28;20086;-82
2022/01/08 10:10:15;;;;;;;37.22;17.92;;;2.90;99.90;;;3.41;100.00;100046.16;5059723;28;20093;-84
2022/01/08 10:12:59;;;;;;;34.00;17.60;;;2.90;99.90;;;3.43;100.00;100049.44;5060181;28;20040;-81
2022/01/08 10:18:36;;;;;;;35.90;17.48;;;2.90;99.90;;;3.52;100.00;100033.66;5077481;28;20108;-79
2022/01/08 10:21:23;;;;;;;35.00;16.40;;;2.90;99.90;;;3.60;100.00;100030.06;5076623;28;20025;-84
2022/01/08 10:24:08;;;;;;;31.55;16.52;;;3.00;99.90;;;3.59;100.00;100025.72;5058113;28;20024;-81
2022/01/08 10:26:39;;;;;;;37.88;17.35;;;3.00;99.90;;;3.51;100.00;100020.16;5061151;28;20029;-79
2022/01/08 10:29:21;;;;;;;38.40;16.80;;;3.10;99.90;;;3.64;100.00;100019.19;5078018;28;20025;-79
2022/01/08 10:31:53;;;;;;;33.85;16.17;;;3.10;99.90;;;3.70;100.00;100015.94;5077304;28;20021;-81
2022/01/08 10:34:33;;;;;;;39.25;16.27;;;3.10;99.90;;;3.61;100.00;100004.09;5058099;28;20021;-84
2022/01/08 10:37:04;;;;;;;32.97;17.08;;;3.10;99.90;;;3.63;100.00;100001.81;5057457;28;20028;-84
2022/01/08 10:39:41;;;;;;;36.90;16.63;;;3.10;99.90;;;3.66;100.00;99997.59;5055998;28;20036;-85